sensor_id;sensor_type;location;lat;lon;timestamp;temperature;humidity
45969;DHT22;31676;40.444;-3.668;2023-05-10T00:00:51;25.80;70.20
45969;DHT22;31676;40.444;-3.668;2023-05-10T00:03:16;25.80;70.20
45969;DHT22;31676;40.444;-3.668;2023-05-10T00:05:42;25.80;70.20
45969;DHT22;31676;40.444;-3.668;2023-05-10T00:08:08;25.80;70.20
45969;DHT22;31676;40.444;-3.668;2023-05-10T00:10:33;25.80;70.30
45969;DHT22;31676;40.444;-3.668;2023-05-10T00:12:59;25.80;70.20
45969;DHT22;31676;40.444;-3.668;2023-05-10T00:15:25;25.80;70.30
45969;DHT22;31676;40.444;-3.668;2023-05-10T00:17:51;25.80;70.30
45969;DHT22;31676;40.444;-3.668;2023-05-10T00:20:16;25.80;70.30
45969;DHT22;31676;40.444;-3.668;2023-05-10T00:22:42;25.80;70.30
45969;DHT22;31676;40.444;-3.668;2023-05-10T00:25:08;25.80;70.30
45969;DHT22;31676;40.444;-3.668;2023-05-10T00:27:34;25.80;70.30
45969;DHT22;31676;40.444;-3.668;2023-05-10T00:30:00;25.80;70.30
45969;DHT22;31676;40.444;-3.668;2023-05-10T00:32:25;25.70;70.20
45969;DHT22;31676;40.444;-3.668;2023-05-10T00:34:51;25.80;70.30
45969;DHT22;31676;40.444;-3.668;2023-05-10T00:37:17;25.70;70.30
45969;DHT22;31676;40.444;-3.668;2023-05-10T00:39:43;25.80;70.30
45969;DHT22;31676;40.444;-3.668;2023-05-10T00:42:08;25.70;70.30
45969;DHT22;31676;40.444;-3.668;2023-05-10T00:44:34;25.80;70.30
45969;DHT22;31676;40.444;-3.668;2023-05-10T00:47:00;25.70;70.30
45969;DHT22;31676;40.444;-3.668;2023-05-10T00:49:25;25.70;70.30
45969;DHT22;31676;40.444;-3.668;2023-05-10T00:51:51;25.70;70.30
45969;DHT22;31676;40.444;-3.668;2023-05-10T00:54:17;25.70;70.30
45969;DHT22;31676;40.444;-3.668;2023-05-10T00:56:43;25.80;70.40
45969;DHT22;31676;40.444;-3.668;2023-05-10T00:59:14;25.70;70.30
45969;DHT22;31676;40.444;-3.668;2023-05-10T01:01:40;25.70;70.40
45969;DHT22;31676;40.444;-3.668;2023-05-10T01:04:06;25.70;70.40
45969;DHT22;31676;40.444;-3.668;2023-05-10T01:06:32;25.70;70.40
45969;DHT22;31676;40.444;-3.668;2023-05-10T01:08:58;25.70;70.40
45969;DHT22;31676;40.444;-3.668;2023-05-10T01:11:23;25.70;70.40
45969;DHT22;31676;40.444;-3.668;2023-05-10T01:13:51;25.70;70.40
45969;DHT22;31676;40.444;-3.668;2023-05-10T01:16:18;25.70;70.40
45969;DHT22;31676;40.444;-3.668;2023-05-10T01:18:44;25.70;70.40
45969;DHT22;31676;40.444;-3.668;2023-05-10T01:21:21;25.70;70.40
45969;DHT22;31676;40.444;-3.668;2023-05-10T01:26:22;25.70;70.40
45969;DHT22;31676;40.444;-3.668;2023-05-10T01:34:09;25.70;70.40
45969;DHT22;31676;40.444;-3.668;2023-05-10T01:39:06;25.70;70.40
45969;DHT22;31676;40.444;-3.668;2023-05-10T01:41:36;25.70;70.50
45969;DHT22;31676;40.444;-3.668;2023-05-10T01:46:35;25.60;70.40
45969;DHT22;31676;40.444;-3.668;2023-05-10T01:49:02;25.60;70.40
45969;DHT22;31676;40.444;-3.668;2023-05-10T01:51:31;25.60;70.40
45969;DHT22;31676;40.444;-3.668;2023-05-10T01:54:02;25.70;70.50
45969;DHT22;31676;40.444;-3.668;2023-05-10T01:56:28;25.60;70.40
45969;DHT22;31676;40.444;-3.668;2023-05-10T01:58:55;25.60;70.40
45969;DHT22;31676;40.444;-3.668;2023-05-10T02:01:21;25.60;70.40
45969;DHT22;31676;40.444;-3.668;2023-05-10T02:03:47;25.60;70.40
45969;DHT22;31676;40.444;-3.668;2023-05-10T02:06:15;25.60;70.50
45969;DHT22;31676;40.444;-3.668;2023-05-10T02:08:42;25.60;70.40
45969;DHT22;31676;40.444;-3.668;2023-05-10T02:11:08;25.60;70.40
45969;DHT22;31676;40.444;-3.668;2023-05-10T02:13:36;25.60;70.40
45969;DHT22;31676;40.444;-3.668;2023-05-10T02:16:04;25.60;70.40
45969;DHT22;31676;40.444;-3.668;2023-05-10T02:18:30;25.60;70.40
45969;DHT22;31676;40.444;-3.668;2023-05-10T02:20:57;25.60;70.50
45969;DHT22;31676;40.444;-3.668;2023-05-10T02:23:23;25.60;70.40
45969;DHT22;31676;40.444;-3.668;2023-05-10T02:25:50;25.60;70.50
45969;DHT22;31676;40.444;-3.668;2023-05-10T02:28:16;25.60;70.50
45969;DHT22;31676;40.444;-3.668;2023-05-10T02:30:42;25.60;70.50
45969;DHT22;31676;40.444;-3.668;2023-05-10T02:33:08;25.60;70.50
45969;DHT22;31676;40.444;-3.668;2023-05-10T02:35:34;25.60;70.50
45969;DHT22;31676;40.444;-3.668;2023-05-10T02:38:01;25.60;70.50
45969;DHT22;31676;40.444;-3.668;2023-05-10T02:40:27;25.60;70.50
45969;DHT22;31676;40.444;-3.668;2023-05-10T02:42:54;25.60;70.50
45969;DHT22;31676;40.444;-3.668;2023-05-10T02:45:20;25.60;70.50
45969;DHT22;31676;40.444;-3.668;2023-05-10T02:47:47;25.60;70.50
45969;DHT22;31676;40.444;-3.668;2023-05-10T02:50:13;25.60;70.50
45969;DHT22;31676;40.444;-3.668;2023-05-10T02:52:40;25.60;70.50
45969;DHT22;31676;40.444;-3.668;2023-05-10T02:55:06;25.60;70.50
45969;DHT22;31676;40.444;-3.668;2023-05-10T02:57:33;25.60;70.50
45969;DHT22;31676;40.444;-3.668;2023-05-10T02:59:59;25.60;70.50
45969;DHT22;31676;40.444;-3.668;2023-05-10T03:02:25;25.60;70.50
45969;DHT22;31676;40.444;-3.668;2023-05-10T03:04:51;25.60;70.50
45969;DHT22;31676;40.444;-3.668;2023-05-10T03:07:17;25.60;70.50
45969;DHT22;31676;40.444;-3.668;2023-05-10T03:09:48;25.60;70.50
45969;DHT22;31676;40.444;-3.668;2023-05-10T03:17:35;25.60;70.50
45969;DHT22;31676;40.444;-3.668;2023-05-10T03:20:06;25.60;70.50
45969;DHT22;31676;40.444;-3.668;2023-05-10T03:22:37;25.60;70.50
45969;DHT22;31676;40.444;-3.668;2023-05-10T03:25:06;25.60;70.50
45969;DHT22;31676;40.444;-3.668;2023-05-10T03:27:33;25.50;70.50
45969;DHT22;31676;40.444;-3.668;2023-05-10T03:29:59;25.60;70.50
45969;DHT22;31676;40.444;-3.668;2023-05-10T03:32:26;25.50;70.50
45969;DHT22;31676;40.444;-3.668;2023-05-10T03:34:52;25.60;70.50
45969;DHT22;31676;40.444;-3.668;2023-05-10T03:37:18;25.50;70.40
45969;DHT22;31676;40.444;-3.668;2023-05-10T03:39:43;25.50;70.40
45969;DHT22;31676;40.444;-3.668;2023-05-10T03:42:09;25.50;70.50
45969;DHT22;31676;40.444;-3.668;2023-05-10T03:44:38;25.60;70.50
45969;DHT22;31676;40.444;-3.668;2023-05-10T03:47:04;25.50;70.50
45969;DHT22;31676;40.444;-3.668;2023-05-10T03:49:29;25.50;70.40
45969;DHT22;31676;40.444;-3.668;2023-05-10T03:51:55;25.50;70.50
45969;DHT22;31676;40.444;-3.668;2023-05-10T03:54:21;25.60;70.50
45969;DHT22;31676;40.444;-3.668;2023-05-10T03:56:46;25.50;70.50
45969;DHT22;31676;40.444;-3.668;2023-05-10T03:59:13;25.50;70.40
45969;DHT22;31676;40.444;-3.668;2023-05-10T04:01:39;25.50;70.50
45969;DHT22;31676;40.444;-3.668;2023-05-10T04:04:04;25.50;70.50
45969;DHT22;31676;40.444;-3.668;2023-05-10T04:06:30;25.50;70.50
45969;DHT22;31676;40.444;-3.668;2023-05-10T04:08:56;25.50;70.50
45969;DHT22;31676;40.444;-3.668;2023-05-10T04:11:25;25.50;70.50
45969;DHT22;31676;40.444;-3.668;2023-05-10T04:13:50;25.50;70.50
45969;DHT22;31676;40.444;-3.668;2023-05-10T04:16:16;25.50;70.50
45969;DHT22;31676;40.444;-3.668;2023-05-10T04:18:42;25.50;70.50
45969;DHT22;31676;40.444;-3.668;2023-05-10T04:21:14;25.50;70.50
45969;DHT22;31676;40.444;-3.668;2023-05-10T04:23:40;25.50;70.50
45969;DHT22;31676;40.444;-3.668;2023-05-10T04:26:06;25.50;70.50
45969;DHT22;31676;40.444;-3.668;2023-05-10T04:28:32;25.50;70.50
45969;DHT22;31676;40.444;-3.668;2023-05-10T04:31:04;25.50;70.50
45969;DHT22;31676;40.444;-3.668;2023-05-10T04:33:30;25.50;70.50
45969;DHT22;31676;40.444;-3.668;2023-05-10T04:35:56;25.50;70.60
45969;DHT22;31676;40.444;-3.668;2023-05-10T04:38:22;25.50;70.60
45969;DHT22;31676;40.444;-3.668;2023-05-10T04:40:47;25.50;70.50
45969;DHT22;31676;40.444;-3.668;2023-05-10T04:43:13;25.50;70.50
45969;DHT22;31676;40.444;-3.668;2023-05-10T04:45:39;25.50;70.50
45969;DHT22;31676;40.444;-3.668;2023-05-10T04:48:05;25.50;70.50
45969;DHT22;31676;40.444;-3.668;2023-05-10T04:50:30;25.50;70.50
45969;DHT22;31676;40.444;-3.668;2023-05-10T04:52:57;25.50;70.50
45969;DHT22;31676;40.444;-3.668;2023-05-10T04:55:22;25.50;70.50
45969;DHT22;31676;40.444;-3.668;2023-05-10T04:57:48;25.50;70.50
45969;DHT22;31676;40.444;-3.668;2023-05-10T05:00:14;25.50;70.60
45969;DHT22;31676;40.444;-3.668;2023-05-10T05:02:43;25.50;70.50
45969;DHT22;31676;40.444;-3.668;2023-05-10T05:05:10;25.50;70.60
45969;DHT22;31676;40.444;-3.668;2023-05-10T05:07:36;25.50;70.60
45969;DHT22;31676;40.444;-3.668;2023-05-10T05:10:04;25.50;70.50
45969;DHT22;31676;40.444;-3.668;2023-05-10T05:12:30;25.50;70.50
45969;DHT22;31676;40.444;-3.668;2023-05-10T05:14:56;25.50;70.60
45969;DHT22;31676;40.444;-3.668;2023-05-10T05:17:22;25.50;70.50
45969;DHT22;31676;40.444;-3.668;2023-05-10T05:19:47;25.50;71.20
45969;DHT22;31676;40.444;-3.668;2023-05-10T05:22:13;25.50;70.50
45969;DHT22;31676;40.444;-3.668;2023-05-10T05:24:38;25.50;70.50
45969;DHT22;31676;40.444;-3.668;2023-05-10T05:27:04;25.40;70.50
45969;DHT22;31676;40.444;-3.668;2023-05-10T05:29:31;25.40;70.50
45969;DHT22;31676;40.444;-3.668;2023-05-10T05:31:56;25.50;70.60
45969;DHT22;31676;40.444;-3.668;2023-05-10T05:34:22;25.50;70.60
45969;DHT22;31676;40.444;-3.668;2023-05-10T05:36:49;25.50;70.60
45969;DHT22;31676;40.444;-3.668;2023-05-10T05:39:15;25.40;70.50
45969;DHT22;31676;40.444;-3.668;2023-05-10T05:41:41;25.40;70.50
45969;DHT22;31676;40.444;-3.668;2023-05-10T05:44:07;25.40;70.50
45969;DHT22;31676;40.444;-3.668;2023-05-10T05:46:33;25.40;70.50
45969;DHT22;31676;40.444;-3.668;2023-05-10T05:48:59;25.40;70.50
45969;DHT22;31676;40.444;-3.668;2023-05-10T05:51:24;25.50;70.60
45969;DHT22;31676;40.444;-3.668;2023-05-10T05:53:50;25.40;70.50
45969;DHT22;31676;40.444;-3.668;2023-05-10T05:56:16;25.40;70.40
45969;DHT22;31676;40.444;-3.668;2023-05-10T05:58:49;25.50;70.60
45969;DHT22;31676;40.444;-3.668;2023-05-10T06:01:15;25.40;70.50
45969;DHT22;31676;40.444;-3.668;2023-05-10T06:03:41;25.40;70.50
45969;DHT22;31676;40.444;-3.668;2023-05-10T06:06:07;25.40;70.50
45969;DHT22;31676;40.444;-3.668;2023-05-10T06:08:33;25.50;70.60
45969;DHT22;31676;40.444;-3.668;2023-05-10T06:10:59;25.40;70.50
45969;DHT22;31676;40.444;-3.668;2023-05-10T06:13:25;25.40;70.50
45969;DHT22;31676;40.444;-3.668;2023-05-10T06:16:00;25.40;70.50
45969;DHT22;31676;40.444;-3.668;2023-05-10T06:18:26;25.40;70.60
45969;DHT22;31676;40.444;-3.668;2023-05-10T06:20:52;25.40;70.50
45969;DHT22;31676;40.444;-3.668;2023-05-10T06:23:18;25.40;70.50
45969;DHT22;31676;40.444;-3.668;2023-05-10T06:25:44;25.40;70.50
45969;DHT22;31676;40.444;-3.668;2023-05-10T06:28:10;25.40;70.50
45969;DHT22;31676;40.444;-3.668;2023-05-10T06:30:36;25.40;70.50
45969;DHT22;31676;40.444;-3.668;2023-05-10T06:33:01;25.40;70.50
45969;DHT22;31676;40.444;-3.668;2023-05-10T06:35:28;25.40;70.50
45969;DHT22;31676;40.444;-3.668;2023-05-10T06:37:53;25.40;70.50
45969;DHT22;31676;40.444;-3.668;2023-05-10T06:40:19;25.40;70.50
45969;DHT22;31676;40.444;-3.668;2023-05-10T06:42:45;25.40;70.50
45969;DHT22;31676;40.444;-3.668;2023-05-10T06:45:11;25.40;70.50
45969;DHT22;31676;40.444;-3.668;2023-05-10T06:47:38;25.40;70.50
45969;DHT22;31676;40.444;-3.668;2023-05-10T06:50:04;25.40;70.50
45969;DHT22;31676;40.444;-3.668;2023-05-10T06:52:29;25.40;70.50
45969;DHT22;31676;40.444;-3.668;2023-05-10T06:54:55;25.40;70.50
45969;DHT22;31676;40.444;-3.668;2023-05-10T06:57:21;25.40;70.50
45969;DHT22;31676;40.444;-3.668;2023-05-10T06:59:47;25.40;70.50
45969;DHT22;31676;40.444;-3.668;2023-05-10T07:02:13;25.40;70.60
45969;DHT22;31676;40.444;-3.668;2023-05-10T07:04:40;25.30;70.50
45969;DHT22;31676;40.444;-3.668;2023-05-10T07:07:06;25.40;70.50
45969;DHT22;31676;40.444;-3.668;2023-05-10T07:09:31;25.30;70.50
45969;DHT22;31676;40.444;-3.668;2023-05-10T07:11:57;25.30;70.50
45969;DHT22;31676;40.444;-3.668;2023-05-10T07:14:23;25.40;70.50
45969;DHT22;31676;40.444;-3.668;2023-05-10T07:16:49;25.30;70.50
45969;DHT22;31676;40.444;-3.668;2023-05-10T07:19:15;25.30;70.50
45969;DHT22;31676;40.444;-3.668;2023-05-10T07:21:40;25.30;70.50
45969;DHT22;31676;40.444;-3.668;2023-05-10T07:24:08;25.30;70.50
45969;DHT22;31676;40.444;-3.668;2023-05-10T07:26:34;25.30;70.50
45969;DHT22;31676;40.444;-3.668;2023-05-10T07:29:00;25.30;70.50
45969;DHT22;31676;40.444;-3.668;2023-05-10T07:31:26;25.30;70.50
45969;DHT22;31676;40.444;-3.668;2023-05-10T07:33:52;25.30;70.50
45969;DHT22;31676;40.444;-3.668;2023-05-10T07:36:18;25.30;70.50
45969;DHT22;31676;40.444;-3.668;2023-05-10T07:38:43;25.30;70.50
45969;DHT22;31676;40.444;-3.668;2023-05-10T07:41:09;25.30;70.50
45969;DHT22;31676;40.444;-3.668;2023-05-10T07:43:35;25.30;70.50
45969;DHT22;31676;40.444;-3.668;2023-05-10T07:46:00;25.30;70.50
45969;DHT22;31676;40.444;-3.668;2023-05-10T07:48:26;25.30;70.50
45969;DHT22;31676;40.444;-3.668;2023-05-10T07:50:52;25.30;70.50
45969;DHT22;31676;40.444;-3.668;2023-05-10T07:53:18;25.30;70.50
45969;DHT22;31676;40.444;-3.668;2023-05-10T07:55:44;25.30;70.50
45969;DHT22;31676;40.444;-3.668;2023-05-10T07:58:10;25.30;70.50
45969;DHT22;31676;40.444;-3.668;2023-05-10T08:00:36;25.30;70.50
45969;DHT22;31676;40.444;-3.668;2023-05-10T08:03:04;25.30;70.40
45969;DHT22;31676;40.444;-3.668;2023-05-10T08:05:30;25.30;70.50
45969;DHT22;31676;40.444;-3.668;2023-05-10T08:07:56;25.30;70.40
45969;DHT22;31676;40.444;-3.668;2023-05-10T08:10:24;25.30;70.50
45969;DHT22;31676;40.444;-3.668;2023-05-10T08:12:49;25.30;70.50
45969;DHT22;31676;40.444;-3.668;2023-05-10T08:15:15;25.30;70.50
45969;DHT22;31676;40.444;-3.668;2023-05-10T08:17:41;25.30;70.40
45969;DHT22;31676;40.444;-3.668;2023-05-10T08:20:07;25.30;70.50
45969;DHT22;31676;40.444;-3.668;2023-05-10T08:22:33;25.30;70.40
45969;DHT22;31676;40.444;-3.668;2023-05-10T08:24:58;25.30;70.40
45969;DHT22;31676;40.444;-3.668;2023-05-10T08:27:24;25.30;70.40
45969;DHT22;31676;40.444;-3.668;2023-05-10T08:29:50;25.30;70.40
45969;DHT22;31676;40.444;-3.668;2023-05-10T08:32:16;25.30;70.40
45969;DHT22;31676;40.444;-3.668;2023-05-10T08:34:42;25.30;70.40
45969;DHT22;31676;40.444;-3.668;2023-05-10T08:37:08;25.30;70.40
45969;DHT22;31676;40.444;-3.668;2023-05-10T08:39:34;25.30;70.40
45969;DHT22;31676;40.444;-3.668;2023-05-10T08:42:01;25.30;70.40
45969;DHT22;31676;40.444;-3.668;2023-05-10T08:44:27;25.30;70.40
45969;DHT22;31676;40.444;-3.668;2023-05-10T08:46:53;25.30;70.40
45969;DHT22;31676;40.444;-3.668;2023-05-10T08:49:19;25.30;70.40
45969;DHT22;31676;40.444;-3.668;2023-05-10T08:51:47;25.40;70.40
45969;DHT22;31676;40.444;-3.668;2023-05-10T08:54:15;25.30;70.40
45969;DHT22;31676;40.444;-3.668;2023-05-10T08:56:41;25.30;70.30
45969;DHT22;31676;40.444;-3.668;2023-05-10T08:59:06;25.30;70.30
45969;DHT22;31676;40.444;-3.668;2023-05-10T09:01:32;25.40;70.40
45969;DHT22;31676;40.444;-3.668;2023-05-10T09:04:00;25.40;70.40
45969;DHT22;31676;40.444;-3.668;2023-05-10T09:06:26;25.40;71.10
45969;DHT22;31676;40.444;-3.668;2023-05-10T09:08:51;25.40;70.40
45969;DHT22;31676;40.444;-3.668;2023-05-10T09:11:17;25.40;70.40
45969;DHT22;31676;40.444;-3.668;2023-05-10T09:13:43;25.40;71.00
45969;DHT22;31676;40.444;-3.668;2023-05-10T09:16:09;25.40;70.40
45969;DHT22;31676;40.444;-3.668;2023-05-10T09:18:35;25.40;70.30
45969;DHT22;31676;40.444;-3.668;2023-05-10T09:21:01;25.40;70.30
45969;DHT22;31676;40.444;-3.668;2023-05-10T09:23:27;25.40;70.30
45969;DHT22;31676;40.444;-3.668;2023-05-10T09:26:04;25.40;70.30
45969;DHT22;31676;40.444;-3.668;2023-05-10T09:28:33;25.40;70.30
45969;DHT22;31676;40.444;-3.668;2023-05-10T09:30:59;25.40;70.30
45969;DHT22;31676;40.444;-3.668;2023-05-10T09:33:24;25.40;70.30
45969;DHT22;31676;40.444;-3.668;2023-05-10T09:35:51;25.40;70.30
45969;DHT22;31676;40.444;-3.668;2023-05-10T09:38:17;25.40;70.30
45969;DHT22;31676;40.444;-3.668;2023-05-10T09:40:43;25.40;70.20
45969;DHT22;31676;40.444;-3.668;2023-05-10T09:43:19;25.40;70.30
45969;DHT22;31676;40.444;-3.668;2023-05-10T09:45:45;25.40;70.30
45969;DHT22;31676;40.444;-3.668;2023-05-10T09:48:13;25.40;70.30
45969;DHT22;31676;40.444;-3.668;2023-05-10T09:50:39;25.50;70.30
45969;DHT22;31676;40.444;-3.668;2023-05-10T09:53:05;25.40;70.30
45969;DHT22;31676;40.444;-3.668;2023-05-10T09:55:39;25.50;70.20
45969;DHT22;31676;40.444;-3.668;2023-05-10T09:58:05;25.50;70.30
45969;DHT22;31676;40.444;-3.668;2023-05-10T10:00:39;25.50;70.20
45969;DHT22;31676;40.444;-3.668;2023-05-10T10:03:05;25.50;70.30
45969;DHT22;31676;40.444;-3.668;2023-05-10T10:05:31;25.50;70.20
45969;DHT22;31676;40.444;-3.668;2023-05-10T10:07:58;25.50;70.20
45969;DHT22;31676;40.444;-3.668;2023-05-10T10:10:24;25.50;70.20
45969;DHT22;31676;40.444;-3.668;2023-05-10T10:12:50;25.50;70.20
45969;DHT22;31676;40.444;-3.668;2023-05-10T10:15:16;25.50;70.20
45969;DHT22;31676;40.444;-3.668;2023-05-10T10:17:41;25.50;70.10
45969;DHT22;31676;40.444;-3.668;2023-05-10T10:20:08;25.50;70.20
45969;DHT22;31676;40.444;-3.668;2023-05-10T10:22:34;25.50;70.20
45969;DHT22;31676;40.444;-3.668;2023-05-10T10:25:00;25.50;70.10
45969;DHT22;31676;40.444;-3.668;2023-05-10T10:27:35;25.50;70.10
45969;DHT22;31676;40.444;-3.668;2023-05-10T10:30:04;25.60;70.20
45969;DHT22;31676;40.444;-3.668;2023-05-10T10:35:18;25.60;70.20
45969;DHT22;31676;40.444;-3.668;2023-05-10T10:37:44;25.60;70.10
45969;DHT22;31676;40.444;-3.668;2023-05-10T10:40:29;25.50;70.10
45969;DHT22;31676;40.444;-3.668;2023-05-10T10:42:55;25.50;70.10
45969;DHT22;31676;40.444;-3.668;2023-05-10T10:45:22;25.60;70.10
45969;DHT22;31676;40.444;-3.668;2023-05-10T10:47:48;25.60;70.10
45969;DHT22;31676;40.444;-3.668;2023-05-10T10:50:14;25.60;70.10
45969;DHT22;31676;40.444;-3.668;2023-05-10T10:52:41;25.60;70.10
45969;DHT22;31676;40.444;-3.668;2023-05-10T11:00:25;25.60;70.10
45969;DHT22;31676;40.444;-3.668;2023-05-10T11:05:39;25.60;70.00
45969;DHT22;31676;40.444;-3.668;2023-05-10T11:08:41;25.60;70.00
45969;DHT22;31676;40.444;-3.668;2023-05-10T11:13:32;25.60;70.00
45969;DHT22;31676;40.444;-3.668;2023-05-10T11:15:58;25.60;70.10
45969;DHT22;31676;40.444;-3.668;2023-05-10T11:18:25;25.60;70.00
45969;DHT22;31676;40.444;-3.668;2023-05-10T11:21:09;25.70;70.00
45969;DHT22;31676;40.444;-3.668;2023-05-10T11:26:10;25.70;70.00
45969;DHT22;31676;40.444;-3.668;2023-05-10T11:28:47;25.70;70.00
45969;DHT22;31676;40.444;-3.668;2023-05-10T11:31:16;25.70;70.00
45969;DHT22;31676;40.444;-3.668;2023-05-10T11:33:45;25.70;70.00
45969;DHT22;31676;40.444;-3.668;2023-05-10T11:36:13;25.70;70.00
45969;DHT22;31676;40.444;-3.668;2023-05-10T11:38:39;25.70;70.00
45969;DHT22;31676;40.444;-3.668;2023-05-10T11:41:05;25.70;70.00
45969;DHT22;31676;40.444;-3.668;2023-05-10T11:43:30;25.70;70.00
45969;DHT22;31676;40.444;-3.668;2023-05-10T11:45:56;25.70;70.00
45969;DHT22;31676;40.444;-3.668;2023-05-10T11:48:22;25.70;70.00
45969;DHT22;31676;40.444;-3.668;2023-05-10T11:50:49;25.70;69.90
45969;DHT22;31676;40.444;-3.668;2023-05-10T11:53:15;25.80;70.00
45969;DHT22;31676;40.444;-3.668;2023-05-10T11:55:40;25.80;70.00
45969;DHT22;31676;40.444;-3.668;2023-05-10T11:58:06;25.80;70.00
45969;DHT22;31676;40.444;-3.668;2023-05-10T12:00:32;25.80;70.00
45969;DHT22;31676;40.444;-3.668;2023-05-10T12:02:59;25.80;70.00
45969;DHT22;31676;40.444;-3.668;2023-05-10T12:05:25;25.80;70.00
45969;DHT22;31676;40.444;-3.668;2023-05-10T12:07:51;25.80;70.00
45969;DHT22;31676;40.444;-3.668;2023-05-10T12:10:17;25.80;69.90
45969;DHT22;31676;40.444;-3.668;2023-05-10T12:12:51;25.80;69.90
45969;DHT22;31676;40.444;-3.668;2023-05-10T12:15:18;25.80;69.90
45969;DHT22;31676;40.444;-3.668;2023-05-10T12:17:45;25.80;69.90
45969;DHT22;31676;40.444;-3.668;2023-05-10T12:20:17;25.80;69.90
45969;DHT22;31676;40.444;-3.668;2023-05-10T12:22:44;25.80;69.90
45969;DHT22;31676;40.444;-3.668;2023-05-10T12:25:10;25.90;70.00
45969;DHT22;31676;40.444;-3.668;2023-05-10T12:27:36;25.90;69.90
45969;DHT22;31676;40.444;-3.668;2023-05-10T12:30:02;25.90;69.90
45969;DHT22;31676;40.444;-3.668;2023-05-10T12:32:37;25.90;70.00
45969;DHT22;31676;40.444;-3.668;2023-05-10T12:35:03;25.90;70.00
45969;DHT22;31676;40.444;-3.668;2023-05-10T12:37:29;25.90;69.90
45969;DHT22;31676;40.444;-3.668;2023-05-10T12:39:54;25.90;69.90
45969;DHT22;31676;40.444;-3.668;2023-05-10T12:42:20;25.90;69.90
45969;DHT22;31676;40.444;-3.668;2023-05-10T12:44:46;25.90;69.90
45969;DHT22;31676;40.444;-3.668;2023-05-10T12:47:11;25.90;69.90
45969;DHT22;31676;40.444;-3.668;2023-05-10T12:49:37;25.90;69.90
45969;DHT22;31676;40.444;-3.668;2023-05-10T12:52:03;25.90;69.90
45969;DHT22;31676;40.444;-3.668;2023-05-10T12:54:29;25.90;69.90
45969;DHT22;31676;40.444;-3.668;2023-05-10T12:56:54;25.90;69.90
45969;DHT22;31676;40.444;-3.668;2023-05-10T12:59:20;25.90;69.80
45969;DHT22;31676;40.444;-3.668;2023-05-10T13:01:46;26.00;69.90
45969;DHT22;31676;40.444;-3.668;2023-05-10T13:04:11;26.00;69.90
45969;DHT22;31676;40.444;-3.668;2023-05-10T13:06:37;26.00;69.90
45969;DHT22;31676;40.444;-3.668;2023-05-10T13:09:03;26.00;69.90
45969;DHT22;31676;40.444;-3.668;2023-05-10T13:11:28;26.00;69.90
45969;DHT22;31676;40.444;-3.668;2023-05-10T13:13:54;26.00;69.90
45969;DHT22;31676;40.444;-3.668;2023-05-10T13:16:20;26.00;69.90
45969;DHT22;31676;40.444;-3.668;2023-05-10T13:18:46;26.00;69.90
45969;DHT22;31676;40.444;-3.668;2023-05-10T13:21:12;26.00;69.90
45969;DHT22;31676;40.444;-3.668;2023-05-10T13:23:37;26.00;69.90
45969;DHT22;31676;40.444;-3.668;2023-05-10T13:26:03;26.00;69.90
45969;DHT22;31676;40.444;-3.668;2023-05-10T13:28:29;26.00;69.90
45969;DHT22;31676;40.444;-3.668;2023-05-10T13:30:55;26.00;69.80
45969;DHT22;31676;40.444;-3.668;2023-05-10T13:33:21;26.00;69.80
45969;DHT22;31676;40.444;-3.668;2023-05-10T13:35:46;26.10;70.00
45969;DHT22;31676;40.444;-3.668;2023-05-10T13:38:12;26.10;69.90
45969;DHT22;31676;40.444;-3.668;2023-05-10T13:40:38;26.10;69.90
45969;DHT22;31676;40.444;-3.668;2023-05-10T13:43:04;26.10;69.90
45969;DHT22;31676;40.444;-3.668;2023-05-10T13:45:30;26.10;69.90
45969;DHT22;31676;40.444;-3.668;2023-05-10T13:47:56;26.10;69.90
45969;DHT22;31676;40.444;-3.668;2023-05-10T13:50:21;26.10;69.90
45969;DHT22;31676;40.444;-3.668;2023-05-10T13:52:47;26.10;69.90
45969;DHT22;31676;40.444;-3.668;2023-05-10T13:55:13;26.10;69.90
45969;DHT22;31676;40.444;-3.668;2023-05-10T13:57:38;26.10;69.90
45969;DHT22;31676;40.444;-3.668;2023-05-10T14:00:04;26.10;69.80
45969;DHT22;31676;40.444;-3.668;2023-05-10T14:02:30;26.10;69.80
45969;DHT22;31676;40.444;-3.668;2023-05-10T14:04:56;26.10;69.90
45969;DHT22;31676;40.444;-3.668;2023-05-10T14:07:22;26.10;69.90
45969;DHT22;31676;40.444;-3.668;2023-05-10T14:09:47;26.10;69.80
45969;DHT22;31676;40.444;-3.668;2023-05-10T14:12:13;26.10;69.80
45969;DHT22;31676;40.444;-3.668;2023-05-10T14:14:40;26.10;69.80
45969;DHT22;31676;40.444;-3.668;2023-05-10T14:17:05;26.10;69.90
45969;DHT22;31676;40.444;-3.668;2023-05-10T14:19:31;26.10;69.90
45969;DHT22;31676;40.444;-3.668;2023-05-10T14:21:58;26.10;69.80
45969;DHT22;31676;40.444;-3.668;2023-05-10T14:24:24;26.20;69.90
45969;DHT22;31676;40.444;-3.668;2023-05-10T14:26:50;26.20;69.90
45969;DHT22;31676;40.444;-3.668;2023-05-10T14:29:19;26.20;69.90
45969;DHT22;31676;40.444;-3.668;2023-05-10T14:31:45;26.20;69.90
45969;DHT22;31676;40.444;-3.668;2023-05-10T14:34:10;26.20;69.90
45969;DHT22;31676;40.444;-3.668;2023-05-10T14:36:36;26.20;69.90
45969;DHT22;31676;40.444;-3.668;2023-05-10T14:39:02;26.20;70.50
45969;DHT22;31676;40.444;-3.668;2023-05-10T14:41:28;26.20;69.90
45969;DHT22;31676;40.444;-3.668;2023-05-10T14:43:55;26.20;69.90
45969;DHT22;31676;40.444;-3.668;2023-05-10T14:46:21;26.20;69.90
45969;DHT22;31676;40.444;-3.668;2023-05-10T14:48:47;26.20;69.90
45969;DHT22;31676;40.444;-3.668;2023-05-10T14:51:12;26.20;69.90
45969;DHT22;31676;40.444;-3.668;2023-05-10T14:53:38;26.20;69.90
45969;DHT22;31676;40.444;-3.668;2023-05-10T14:56:04;26.20;69.90
45969;DHT22;31676;40.444;-3.668;2023-05-10T14:58:30;26.20;69.90
45969;DHT22;31676;40.444;-3.668;2023-05-10T15:00:56;26.20;69.90
45969;DHT22;31676;40.444;-3.668;2023-05-10T15:03:22;26.20;69.90
45969;DHT22;31676;40.444;-3.668;2023-05-10T15:05:47;26.20;69.90
45969;DHT22;31676;40.444;-3.668;2023-05-10T15:08:13;26.20;69.80
45969;DHT22;31676;40.444;-3.668;2023-05-10T15:10:39;26.30;69.90
45969;DHT22;31676;40.444;-3.668;2023-05-10T15:13:05;26.20;69.90
45969;DHT22;31676;40.444;-3.668;2023-05-10T15:15:31;26.30;69.90
45969;DHT22;31676;40.444;-3.668;2023-05-10T15:17:56;26.20;69.90
45969;DHT22;31676;40.444;-3.668;2023-05-10T15:20:22;26.20;69.80
45969;DHT22;31676;40.444;-3.668;2023-05-10T15:22:48;26.30;69.90
45969;DHT22;31676;40.444;-3.668;2023-05-10T15:25:13;26.30;69.90
45969;DHT22;31676;40.444;-3.668;2023-05-10T15:27:41;26.20;69.80
45969;DHT22;31676;40.444;-3.668;2023-05-10T15:30:09;26.30;69.90
45969;DHT22;31676;40.444;-3.668;2023-05-10T15:32:35;26.30;69.90
45969;DHT22;31676;40.444;-3.668;2023-05-10T15:35:00;26.30;69.90
45969;DHT22;31676;40.444;-3.668;2023-05-10T15:37:27;26.30;69.90
45969;DHT22;31676;40.444;-3.668;2023-05-10T15:39:53;26.30;69.90
45969;DHT22;31676;40.444;-3.668;2023-05-10T15:42:19;26.30;69.90
45969;DHT22;31676;40.444;-3.668;2023-05-10T15:44:45;26.30;69.90